Time;durP1;ratioP1;P1;durP2;ratioP2;P2;SDS_P1;SDS_P2;PMS_P1;PMS_P2;Temp;Humidity;BMP_temperature;BMP_pressure;BME280_temperature;BME280_humidity;BME280_pressure;Samples;Min_cycle;Max_cycle;Signal;HPM_P1;HPM_P2
2024/02/27 00:01:18;;;;;;;20.00;9.33;;;6.80;99.90;;;;;;4996625;28;20805;-74
2024/02/27 00:03:46;;;;;;;16.00;8.10;;;6.90;99.90;;;;;;4996063;28;20462;-74
2024/02/27 00:06:12;;;;;;;13.50;8.60;;;6.80;99.90;;;;;;4992285;28;20465;-73
2024/02/27 00:08:39;;;;;;;12.13;6.60;;;6.90;99.90;;;;;;4998884;28;20470;-72
2024/02/27 00:11:06;;;;;;;14.17;7.70;;;6.80;99.90;;;;;;4993984;28;20476;-74
2024/02/27 00:13:32;;;;;;;12.57;6.40;;;6.70;99.90;;;;;;4996587;28;20432;-74
2024/02/27 00:15:59;;;;;;;10.53;6.73;;;6.80;99.90;;;;;;4996804;28;20421;-72
2024/02/27 00:18:26;;;;;;;12.83;7.57;;;6.80;99.90;;;;;;4992612;28;20538;-73
2024/02/27 00:20:54;;;;;;;15.70;8.23;;;6.80;99.90;;;;;;4993632;28;20485;-73
2024/02/27 00:23:21;;;;;;;12.40;7.17;;;6.70;99.90;;;;;;4995163;28;21099;-72
2024/02/27 00:25:47;;;;;;;13.37;9.07;;;6.70;99.90;;;;;;4997809;28;20461;-72
2024/02/27 00:28:14;;;;;;;15.00;7.77;;;6.70;99.90;;;;;;4983964;28;20563;-73
2024/02/27 00:30:41;;;;;;;15.10;9.53;;;6.80;99.90;;;;;;4995065;28;20468;-73
2024/02/27 00:33:08;;;;;;;15.27;7.33;;;6.80;99.90;;;;;;4993876;28;20458;-72
2024/02/27 00:35:35;;;;;;;12.73;7.63;;;6.80;99.90;;;;;;4993815;28;20472;-73
2024/02/27 00:38:03;;;;;;;15.20;7.80;;;6.80;99.90;;;;;;4990009;28;20487;-73
2024/02/27 00:40:30;;;;;;;14.00;8.80;;;6.90;99.90;;;;;;4992703;28;20497;-73
2024/02/27 00:42:57;;;;;;;7.80;5.57;;;6.80;99.90;;;;;;4995968;28;21570;-73
2024/02/27 00:45:24;;;;;;;14.93;7.73;;;6.90;99.90;;;;;;4987768;28;20460;-73
2024/02/27 00:47:56;;;;;;;12.57;7.57;;;6.80;99.90;;;;;;4994351;28;20883;-73
2024/02/27 00:50:23;;;;;;;12.37;7.57;;;6.80;99.90;;;;;;4992202;28;20485;-74
2024/02/27 00:52:50;;;;;;;12.33;7.73;;;6.70;99.90;;;;;;4999040;28;20476;-73
2024/02/27 00:55:18;;;;;;;12.93;7.50;;;6.70;99.90;;;;;;4995215;28;20436;-73
2024/02/27 00:57:45;;;;;;;16.30;8.30;;;6.60;99.90;;;;;;4997552;28;20578;-74
2024/02/27 01:00:13;;;;;;;15.97;8.27;;;6.60;99.90;;;;;;4984361;28;20827;-73
2024/02/27 01:02:42;;;;;;;16.33;8.40;;;6.70;99.90;;;;;;4988485;28;20510;-73
2024/02/27 01:05:10;;;;;;;17.30;8.40;;;6.80;99.90;;;;;;4996951;28;20960;-73
2024/02/27 01:07:37;;;;;;;15.43;7.80;;;6.80;99.90;;;;;;4997387;28;20911;-73
2024/02/27 01:10:06;;;;;;;15.30;8.07;;;6.70;99.90;;;;;;4995314;28;20532;-73
2024/02/27 01:12:34;;;;;;;11.17;7.80;;;6.80;99.90;;;;;;4997990;28;20432;-73
2024/02/27 01:15:01;;;;;;;14.50;6.63;;;6.80;99.90;;;;;;4984888;28;21059;-72
2024/02/27 01:17:27;;;;;;;13.17;7.53;;;6.80;99.90;;;;;;4995981;28;20461;-73
2024/02/27 01:19:54;;;;;;;12.80;7.63;;;6.70;99.90;;;;;;4995130;28;20452;-72
2024/02/27 01:22:26;;;;;;;13.63;7.83;;;6.60;99.90;;;;;;4991359;28;20490;-72
2024/02/27 01:24:53;;;;;;;9.70;6.07;;;6.70;99.90;;;;;;4989040;28;20462;-72
2024/02/27 01:27:20;;;;;;;11.10;6.40;;;6.90;99.90;;;;;;4992480;28;22192;-74
2024/02/27 01:29:48;;;;;;;11.00;6.97;;;6.80;99.90;;;;;;4992253;28;20908;-72
2024/02/27 01:32:16;;;;;;;17.70;10.97;;;6.70;99.90;;;;;;4994352;28;20895;-72
2024/02/27 01:34:43;;;;;;;10.53;6.33;;;6.60;99.90;;;;;;4982654;28;20485;-72
2024/02/27 01:37:09;;;;;;;11.70;6.70;;;6.70;99.90;;;;;;4997005;28;20991;-72
2024/02/27 01:39:36;;;;;;;12.80;8.00;;;6.60;99.90;;;;;;4991041;28;20477;-72
2024/02/27 01:42:03;;;;;;;15.20;7.00;;;6.60;99.90;;;;;;4997979;28;20485;-72
2024/02/27 01:44:30;;;;;;;12.40;8.77;;;6.60;99.90;;;;;;4990935;28;20832;-74
2024/02/27 01:47:00;;;;;;;12.63;7.53;;;6.50;99.90;;;;;;4990575;28;20469;-74
2024/02/27 01:49:28;;;;;;;16.40;8.43;;;6.50;99.90;;;;;;4985790;28;21003;-74
2024/02/27 01:51:56;;;;;;;12.90;6.20;;;6.50;99.90;;;;;;4992723;28;20458;-74
2024/02/27 01:54:26;;;;;;;16.67;8.73;;;6.50;99.90;;;;;;4987921;28;20583;-74
2024/02/27 01:56:54;;;;;;;13.50;7.10;;;6.50;99.90;;;;;;4989311;28;20484;-73
2024/02/27 01:59:22;;;;;;;18.70;10.37;;;6.50;99.90;;;;;;4980292;28;20696;-74
2024/02/27 02:01:50;;;;;;;14.63;8.33;;;6.40;99.90;;;;;;4996294;28;20568;-74
2024/02/27 02:04:18;;;;;;;14.17;6.77;;;6.40;99.90;;;;;;4980739;28;20454;-74
2024/02/27 02:06:46;;;;;;;19.43;9.40;;;6.40;99.90;;;;;;4990531;28;20476;-72
2024/02/27 02:09:13;;;;;;;8.50;6.23;;;6.40;99.90;;;;;;4987160;28;21017;-72
2024/02/27 02:11:41;;;;;;;13.57;7.00;;;6.50;99.90;;;;;;4991566;28;20471;-72
2024/02/27 02:14:08;;;;;;;13.30;7.03;;;6.40;99.90;;;;;;4989327;28;20436;-73
2024/02/27 02:16:35;;;;;;;15.50;8.60;;;6.40;99.90;;;;;;4993186;28;20457;-73
2024/02/27 02:19:02;;;;;;;11.83;6.50;;;6.40;99.90;;;;;;4987007;28;20488;-74
2024/02/27 02:21:30;;;;;;;15.90;8.50;;;6.30;99.90;;;;;;4996219;28;20485;-73
2024/02/27 02:23:59;;;;;;;10.93;6.50;;;6.20;99.90;;;;;;4991222;28;20469;-73
2024/02/27 02:26:28;;;;;;;10.70;5.70;;;6.30;99.90;;;;;;4994923;28;20477;-73
2024/02/27 02:28:55;;;;;;;14.27;8.47;;;6.30;99.90;;;;;;4990828;28;20596;-73
2024/02/27 02:31:22;;;;;;;12.47;6.13;;;6.30;99.90;;;;;;4995153;28;21318;-73
2024/02/27 02:33:48;;;;;;;11.10;5.33;;;6.20;99.90;;;;;;4988716;28;20465;-73
2024/02/27 02:36:15;;;;;;;14.90;6.60;;;6.30;99.90;;;;;;4988149;28;20448;-73
2024/02/27 02:38:44;;;;;;;17.80;8.90;;;6.40;99.90;;;;;;4998061;28;20488;-73
2024/02/27 02:41:11;;;;;;;16.60;8.67;;;6.40;99.90;;;;;;4993154;28;20493;-73
2024/02/27 02:43:38;;;;;;;13.03;7.80;;;6.30;99.90;;;;;;4994399;28;20488;-73
2024/02/27 02:46:05;;;;;;;12.47;7.63;;;6.40;99.90;;;;;;4995052;28;20585;-73
2024/02/27 02:48:31;;;;;;;17.33;8.97;;;6.50;99.90;;;;;;4993850;28;20485;-73
2024/02/27 02:50:58;;;;;;;13.10;8.10;;;6.30;99.90;;;;;;4994089;28;20460;-74
2024/02/27 02:53:25;;;;;;;19.70;8.20;;;6.30;99.90;;;;;;4995465;28;20461;-73
2024/02/27 02:55:53;;;;;;;9.43;7.13;;;6.20;99.90;;;;;;4995252;28;20435;-74
2024/02/27 02:58:20;;;;;;;11.00;7.43;;;6.20;99.90;;;;;;5000665;28;20464;-74
2024/02/27 03:00:46;;;;;;;14.60;9.87;;;6.20;99.90;;;;;;4998301;28;20564;-73
2024/02/27 03:03:13;;;;;;;15.40;6.73;;;6.10;99.90;;;;;;4996728;28;20444;-72
2024/02/27 03:05:40;;;;;;;15.87;9.40;;;6.00;99.90;;;;;;4992441;28;20465;-73
2024/02/27 03:08:07;;;;;;;12.30;7.50;;;6.00;99.90;;;;;;4995009;28;20484;-73
2024/02/27 03:10:34;;;;;;;13.07;7.63;;;6.10;99.90;;;;;;5000606;28;20484;-73
2024/02/27 03:13:02;;;;;;;11.40;5.90;;;6.10;99.90;;;;;;4996276;28;20461;-72
2024/02/27 03:15:28;;;;;;;16.13;7.40;;;6.10;99.90;;;;;;4995172;28;20473;-73
2024/02/27 03:17:55;;;;;;;11.20;6.50;;;6.10;99.90;;;;;;4993806;28;20465;-74
2024/02/27 03:20:22;;;;;;;14.30;8.10;;;6.10;99.90;;;;;;4990456;28;20482;-74
2024/02/27 03:22:48;;;;;;;19.33;7.93;;;6.10;99.90;;;;;;4996259;28;20481;-73
2024/02/27 03:25:15;;;;;;;15.93;7.30;;;6.10;99.90;;;;;;4995782;28;21005;-72
2024/02/27 03:27:42;;;;;;;17.87;9.47;;;6.20;99.90;;;;;;4995009;28;20869;-73
2024/02/27 03:30:13;;;;;;;16.50;7.80;;;6.30;99.90;;;;;;4990840;28;20484;-73
2024/02/27 03:32:39;;;;;;;9.57;5.30;;;6.10;99.90;;;;;;4998245;28;20447;-73
2024/02/27 03:35:09;;;;;;;15.97;8.70;;;6.20;99.90;;;;;;4992237;28;21219;-73
2024/02/27 03:37:35;;;;;;;15.77;8.30;;;6.10;99.90;;;;;;4998596;28;20470;-73
2024/02/27 03:40:02;;;;;;;7.97;7.23;;;6.10;99.90;;;;;;4991023;28;20972;-73
2024/02/27 03:42:29;;;;;;;9.77;5.57;;;6.10;99.90;;;;;;4992014;28;20487;-73
2024/02/27 03:44:55;;;;;;;18.27;8.70;;;6.20;99.90;;;;;;4997803;28;20465;-73
2024/02/27 03:47:23;;;;;;;11.70;7.43;;;6.10;99.90;;;;;;4995770;28;20461;-73
2024/02/27 03:49:50;;;;;;;11.90;8.67;;;6.10;99.90;;;;;;4988448;28;20485;-73
2024/02/27 03:52:17;;;;;;;14.67;6.60;;;6.10;99.90;;;;;;4993398;28;21148;-73
2024/02/27 03:54:44;;;;;;;18.93;7.27;;;6.20;99.90;;;;;;4991424;28;20822;-73
2024/02/27 03:57:10;;;;;;;13.20;6.97;;;6.20;99.90;;;;;;4996212;28;20472;-73
2024/02/27 03:59:37;;;;;;;14.20;8.50;;;6.20;99.90;;;;;;4992716;28;20583;-74
2024/02/27 04:02:04;;;;;;;16.33;7.87;;;6.10;99.90;;;;;;4988629;28;20459;-72
2024/02/27 04:04:32;;;;;;;8.87;5.77;;;6.10;99.90;;;;;;4996596;28;20477;-72
2024/02/27 04:06:59;;;;;;;11.20;8.47;;;6.10;99.90;;;;;;4991718;28;20461;-73
2024/02/27 04:09:26;;;;;;;13.00;6.57;;;6.00;99.90;;;;;;4995117;28;20492;-71
2024/02/27 04:11:53;;;;;;;11.10;6.43;;;6.00;99.90;;;;;;4995931;28;20480;-73
2024/02/27 04:14:20;;;;;;;13.83;7.27;;;6.00;99.90;;;;;;4991767;28;20484;-72
2024/02/27 04:16:46;;;;;;;16.33;8.13;;;6.00;99.90;;;;;;4996151;28;20431;-73
2024/02/27 04:19:13;;;;;;;13.57;8.80;;;6.00;99.90;;;;;;4988782;28;20518;-74
2024/02/27 04:21:41;;;;;;;21.03;8.30;;;6.00;99.90;;;;;;4990708;28;20516;-73
2024/02/27 04:24:08;;;;;;;10.77;6.73;;;5.80;99.90;;;;;;4991634;28;20440;-73
2024/02/27 04:26:35;;;;;;;10.37;6.63;;;6.00;99.90;;;;;;4989624;28;20480;-72
2024/02/27 04:29:02;;;;;;;18.77;9.27;;;6.00;99.90;;;;;;4993825;28;20527;-72
2024/02/27 04:31:28;;;;;;;11.70;6.67;;;6.00;99.90;;;;;;4986515;28;20483;-72
2024/02/27 04:33:55;;;;;;;11.37;6.00;;;5.90;99.90;;;;;;4985694;28;20566;-73
2024/02/27 04:36:22;;;;;;;10.07;6.27;;;6.00;99.90;;;;;;4975407;28;20476;-73
2024/02/27 04:38:50;;;;;;;19.13;8.30;;;5.80;99.90;;;;;;4975426;28;20477;-72
2024/02/27 04:41:17;;;;;;;10.13;6.43;;;5.90;99.90;;;;;;4975899;28;21580;-73
2024/02/27 04:43:44;;;;;;;14.80;7.43;;;5.80;99.90;;;;;;4985022;28;20965;-73
2024/02/27 04:46:10;;;;;;;14.77;7.57;;;5.80;99.90;;;;;;4988086;28;20464;-73
2024/02/27 04:48:38;;;;;;;12.00;7.30;;;5.80;99.90;;;;;;4987998;28;20479;-73
2024/02/27 04:51:07;;;;;;;14.77;8.57;;;5.80;99.90;;;;;;4989286;28;20978;-73
2024/02/27 04:53:34;;;;;;;15.20;7.40;;;5.80;99.90;;;;;;4989898;28;20522;-73
2024/02/27 04:56:02;;;;;;;15.30;7.80;;;5.90;99.90;;;;;;4988043;28;20453;-73
2024/02/27 04:58:29;;;;;;;17.83;8.83;;;6.00;99.90;;;;;;4991682;28;20481;-72
2024/02/27 05:00:56;;;;;;;19.97;7.97;;;5.90;99.90;;;;;;4994465;28;20472;-73
2024/02/27 05:03:22;;;;;;;20.63;9.10;;;5.90;99.90;;;;;;4986544;28;20459;-73
2024/02/27 05:05:49;;;;;;;16.17;7.37;;;6.00;99.90;;;;;;4997690;28;20556;-72
2024/02/27 05:08:16;;;;;;;19.80;6.00;;;6.00;99.90;;;;;;4995240;28;20785;-73
2024/02/27 05:10:43;;;;;;;14.53;7.37;;;6.00;99.90;;;;;;5018067;23;20549;-73
2024/02/27 05:13:11;;;;;;;12.33;7.30;;;6.00;99.90;;;;;;5012424;28;21223;-73
2024/02/27 05:15:37;;;;;;;20.03;8.80;;;6.00;99.90;;;;;;5011063;28;20955;-73
2024/02/27 05:20:51;;;;;;;11.77;6.63;;;6.00;99.90;;;;;;4988503;28;20473;-73
2024/02/27 05:23:18;;;;;;;15.07;7.80;;;6.00;99.90;;;;;;4990944;28;20485;-73
2024/02/27 05:25:45;;;;;;;16.47;9.67;;;5.90;99.90;;;;;;4990654;28;22324;-73
2024/02/27 05:28:13;;;;;;;13.17;7.30;;;5.90;99.90;;;;;;4993113;28;20465;-73
2024/02/27 05:30:40;;;;;;;11.83;6.20;;;6.00;99.90;;;;;;4993477;28;20600;-73
2024/02/27 05:33:08;;;;;;;21.20;9.60;;;6.10;99.90;;;;;;4988648;28;20439;-74
2024/02/27 05:35:34;;;;;;;14.70;7.70;;;5.90;99.90;;;;;;4992003;28;20443;-74
2024/02/27 05:38:01;;;;;;;20.00;7.70;;;5.70;99.90;;;;;;4994815;28;20460;-74
2024/02/27 05:40:28;;;;;;;19.17;11.00;;;5.70;99.90;;;;;;4983830;28;20477;-74
2024/02/27 05:42:54;;;;;;;16.87;8.27;;;5.70;99.90;;;;;;4991361;28;21058;-74
2024/02/27 05:45:23;;;;;;;15.20;7.03;;;5.70;99.90;;;;;;4990129;28;20451;-74
2024/02/27 05:47:49;;;;;;;12.40;7.17;;;5.60;99.90;;;;;;4994116;28;20439;-75
2024/02/27 05:50:16;;;;;;;16.27;7.70;;;5.70;99.90;;;;;;4991709;28;21185;-74
2024/02/27 05:52:43;;;;;;;18.20;6.57;;;5.70;99.90;;;;;;4992978;28;20472;-73
2024/02/27 05:55:10;;;;;;;15.03;8.13;;;5.80;99.90;;;;;;4995631;28;20457;-73
2024/02/27 05:57:37;;;;;;;14.20;8.00;;;5.80;99.90;;;;;;4994054;28;20514;-73
2024/02/27 06:00:04;;;;;;;19.40;8.23;;;5.80;99.90;;;;;;4988376;28;20499;-74
2024/02/27 06:02:32;;;;;;;13.13;7.17;;;5.70;99.90;;;;;;4986473;28;20969;-73
2024/02/27 06:04:59;;;;;;;13.90;6.70;;;5.80;99.90;;;;;;4998268;28;20832;-73
2024/02/27 06:07:25;;;;;;;15.73;7.43;;;5.60;99.90;;;;;;4997013;28;20482;-73
2024/02/27 06:09:52;;;;;;;17.17;7.97;;;5.50;99.90;;;;;;5000022;28;20481;-73
2024/02/27 06:12:19;;;;;;;16.27;7.33;;;5.40;99.90;;;;;;4993277;28;20446;-73
2024/02/27 06:14:46;;;;;;;10.80;6.27;;;5.50;99.90;;;;;;4996203;28;20950;-74
2024/02/27 06:17:13;;;;;;;14.27;8.60;;;5.60;99.90;;;;;;4998549;28;20496;-73
2024/02/27 06:19:44;;;;;;;18.63;8.40;;;5.50;99.90;;;;;;5000808;28;20568;-73
2024/02/27 06:22:11;;;;;;;25.37;11.13;;;5.40;99.90;;;;;;4998123;28;20495;-74
2024/02/27 06:24:38;;;;;;;13.93;7.93;;;5.50;99.90;;;;;;4999842;28;20886;-73
2024/02/27 06:27:05;;;;;;;19.40;7.73;;;5.50;99.90;;;;;;4996311;28;20461;-73
2024/02/27 06:29:32;;;;;;;12.00;6.60;;;5.40;99.90;;;;;;4999530;28;20875;-73
2024/02/27 06:31:59;;;;;;;12.77;6.97;;;5.30;99.90;;;;;;5001841;28;20479;-73
2024/02/27 06:34:26;;;;;;;13.57;7.00;;;5.40;99.90;;;;;;5000349;28;20435;-73
2024/02/27 06:36:54;;;;;;;13.03;7.20;;;5.50;99.90;;;;;;5003538;28;20464;-73
2024/02/27 06:39:21;;;;;;;21.40;8.70;;;5.40;99.90;;;;;;4998048;28;20546;-73
2024/02/27 06:41:49;;;;;;;14.90;8.33;;;5.40;99.90;;;;;;4998210;28;20464;-73
2024/02/27 06:44:15;;;;;;;11.50;7.63;;;5.50;99.90;;;;;;4995841;28;21114;-73
2024/02/27 06:46:42;;;;;;;12.67;7.47;;;5.60;99.90;;;;;;5003108;28;20633;-74
2024/02/27 06:49:09;;;;;;;21.63;8.57;;;5.50;99.90;;;;;;5000308;28;20456;-74
2024/02/27 06:51:36;;;;;;;20.37;8.97;;;5.60;99.90;;;;;;5001669;28;20468;-75
2024/02/27 06:54:04;;;;;;;10.13;7.50;;;5.50;99.90;;;;;;5001333;28;20465;-74
2024/02/27 06:56:31;;;;;;;14.20;6.73;;;5.50;99.90;;;;;;5003808;28;20483;-74
2024/02/27 06:58:58;;;;;;;12.80;8.03;;;5.50;99.90;;;;;;4999091;28;21223;-74
2024/02/27 07:01:24;;;;;;;11.57;6.97;;;5.40;99.90;;;;;;4998584;28;20469;-74
2024/02/27 07:03:51;;;;;;;15.97;9.40;;;5.40;99.90;;;;;;5004786;28;20816;-74
2024/02/27 07:06:18;;;;;;;15.90;9.77;;;5.40;99.90;;;;;;5005563;28;20944;-74
2024/02/27 07:08:47;;;;;;;9.40;6.13;;;5.50;99.90;;;;;;5003940;28;20489;-74
2024/02/27 07:11:16;;;;;;;11.53;7.70;;;5.50;99.90;;;;;;5007358;28;20443;-74
2024/02/27 07:13:43;;;;;;;22.17;9.57;;;5.30;99.90;;;;;;4999400;28;20988;-74
2024/02/27 07:16:11;;;;;;;16.60;8.70;;;5.30;99.90;;;;;;5002853;28;20556;-74
2024/02/27 07:18:38;;;;;;;13.57;7.90;;;5.40;99.90;;;;;;4997845;28;20627;-75
2024/02/27 07:21:05;;;;;;;23.03;7.40;;;5.40;99.90;;;;;;4999141;28;20443;-74
2024/02/27 07:23:32;;;;;;;14.17;6.37;;;5.40;99.90;;;;;;4994509;28;20463;-73
2024/02/27 07:25:59;;;;;;;21.43;8.33;;;5.50;99.90;;;;;;5000375;28;20432;-74
2024/02/27 07:28:27;;;;;;;19.73;9.40;;;5.40;99.90;;;;;;4998237;28;20487;-73
2024/02/27 07:30:54;;;;;;;14.10;8.80;;;5.40;99.90;;;;;;5004167;28;20649;-74
2024/02/27 07:33:21;;;;;;;16.60;8.57;;;5.50;99.90;;;;;;5006974;28;20436;-74
2024/02/27 07:35:47;;;;;;;9.43;6.67;;;5.30;99.90;;;;;;5001466;28;20892;-73
2024/02/27 07:38:14;;;;;;;16.73;7.73;;;5.30;99.90;;;;;;4999139;28;21032;-74
2024/02/27 07:40:41;;;;;;;15.67;8.03;;;5.10;99.90;;;;;;4997464;28;20851;-74
2024/02/27 07:43:08;;;;;;;21.90;10.67;;;5.10;99.90;;;;;;4997407;28;20556;-74
2024/02/27 07:45:36;;;;;;;15.10;5.00;;;5.10;99.90;;;;;;4996122;28;20444;-74
2024/02/27 07:48:03;;;;;;;11.97;6.97;;;5.10;99.90;;;;;;4998610;28;20602;-73
2024/02/27 07:50:30;;;;;;;8.97;4.27;;;5.10;99.90;;;;;;4992208;28;20541;-74
2024/02/27 07:52:58;;;;;;;18.70;12.27;;;5.20;99.90;;;;;;4990682;28;20468;-74
2024/02/27 07:55:26;;;;;;;10.80;6.90;;;5.10;99.90;;;;;;4989094;28;20563;-75
2024/02/27 07:57:52;;;;;;;17.93;7.27;;;5.00;99.90;;;;;;4990842;28;20435;-74
2024/02/27 08:00:20;;;;;;;9.03;6.60;;;5.10;99.90;;;;;;4988603;28;20484;-74
2024/02/27 08:02:48;;;;;;;14.77;9.20;;;5.10;99.90;;;;;;4991407;28;20607;-74
2024/02/27 08:05:15;;;;;;;17.07;6.03;;;5.20;99.90;;;;;;4993367;28;20477;-73
2024/02/27 08:07:42;;;;;;;17.57;8.30;;;5.20;99.90;;;;;;4993445;28;20480;-74
2024/02/27 08:10:09;;;;;;;10.07;5.20;;;5.20;99.90;;;;;;4998897;28;20488;-74
2024/02/27 08:12:36;;;;;;;14.33;8.40;;;5.30;99.90;;;;;;4986775;28;21003;-74
2024/02/27 08:15:03;;;;;;;13.67;6.47;;;5.30;99.90;;;;;;4994731;28;20990;-74
2024/02/27 08:17:30;;;;;;;13.77;8.13;;;5.20;99.90;;;;;;4993413;28;20465;-73
2024/02/27 08:19:58;;;;;;;2.80;2.60;;;5.30;99.90;;;;;;4988744;28;20979;-73
2024/02/27 08:22:25;;;;;;;11.03;7.03;;;5.40;99.90;;;;;;4992152;28;20465;-74
2024/02/27 08:24:51;;;;;;;12.73;6.33;;;5.20;99.90;;;;;;4999417;28;20471;-74
2024/02/27 08:27:18;;;;;;;11.63;6.87;;;5.10;99.90;;;;;;4993928;28;20477;-74
2024/02/27 08:29:45;;;;;;;12.90;5.13;;;5.00;99.90;;;;;;4997474;28;20485;-75
2024/02/27 08:32:11;;;;;;;12.90;5.90;;;5.00;99.90;;;;;;4998387;28;20604;-75
2024/02/27 08:34:38;;;;;;;18.27;7.67;;;5.20;99.90;;;;;;5001585;28;20937;-74
2024/02/27 08:37:06;;;;;;;10.67;5.47;;;5.10;99.90;;;;;;4989633;28;20479;-74
2024/02/27 08:39:33;;;;;;;15.73;8.10;;;5.10;99.90;;;;;;4996641;28;20500;-74
2024/02/27 08:42:00;;;;;;;11.37;5.47;;;5.30;99.90;;;;;;4987243;28;21192;-74
2024/02/27 08:44:27;;;;;;;15.40;6.50;;;5.20;99.90;;;;;;4993998;28;20668;-74
2024/02/27 08:46:54;;;;;;;17.83;7.80;;;5.30;99.90;;;;;;4997395;28;21140;-73
2024/02/27 08:49:20;;;;;;;15.60;7.30;;;5.20;99.90;;;;;;4994008;28;20515;-73
2024/02/27 08:51:47;;;;;;;9.37;4.57;;;5.30;99.90;;;;;;4996703;28;20447;-73
2024/02/27 08:54:15;;;;;;;11.20;6.60;;;5.50;99.90;;;;;;5000038;28;20453;-73
2024/02/27 08:56:42;;;;;;;14.73;5.80;;;5.50;99.90;;;;;;5000591;28;20465;-74
2024/02/27 08:59:09;;;;;;;12.00;6.70;;;5.50;99.90;;;;;;5000691;28;20481;-75
2024/02/27 09:01:36;;;;;;;8.97;5.60;;;5.50;99.90;;;;;;4997749;28;20836;-74
2024/02/27 09:04:02;;;;;;;14.80;6.20;;;5.50;99.90;;;;;;4985048;28;20488;-74
2024/02/27 09:06:29;;;;;;;9.13;5.13;;;5.60;99.90;;;;;;4991245;28;20455;-74
2024/02/27 09:08:56;;;;;;;12.13;4.60;;;5.40;99.90;;;;;;4997711;28;20858;-74
2024/02/27 09:11:24;;;;;;;11.33;6.90;;;5.40;99.90;;;;;;5000109;28;20484;-74
2024/02/27 09:13:51;;;;;;;8.67;6.10;;;5.30;99.90;;;;;;4993147;28;20464;-74
2024/02/27 09:16:17;;;;;;;9.37;3.40;;;5.30;99.90;;;;;;4991716;28;20557;-75
2024/02/27 09:18:45;;;;;;;14.60;7.17;;;5.40;99.90;;;;;;4989912;28;20477;-74
2024/02/27 09:21:12;;;;;;;12.50;6.23;;;5.30;99.90;;;;;;5000532;28;20461;-74
2024/02/27 09:23:39;;;;;;;6.57;4.10;;;5.30;99.90;;;;;;4995937;28;20485;-73
2024/02/27 09:26:06;;;;;;;7.43;4.83;;;5.30;99.90;;;;;;4995146;28;20461;-73
2024/02/27 09:28:34;;;;;;;18.23;7.20;;;5.10;99.90;;;;;;4990248;28;20489;-73
2024/02/27 09:31:02;;;;;;;2.70;2.50;;;5.10;99.90;;;;;;4998101;28;20517;-74
2024/02/27 09:33:29;;;;;;;13.90;5.23;;;5.10;99.90;;;;;;4997313;28;20459;-74
2024/02/27 09:35:56;;;;;;;8.60;5.00;;;5.10;99.90;;;;;;5000019;28;20457;-73
2024/02/27 09:38:23;;;;;;;21.50;8.47;;;4.90;99.90;;;;;;4996226;28;20484;-73
2024/02/27 09:40:53;;;;;;;8.13;5.57;;;4.90;99.90;;;;;;4996158;28;20767;-74
2024/02/27 09:43:25;;;;;;;11.60;6.70;;;5.10;99.90;;;;;;4996093;28;20484;-74
2024/02/27 09:45:53;;;;;;;13.13;5.50;;;5.40;99.90;;;;;;4999279;28;20545;-74
2024/02/27 09:48:28;;;;;;;5.40;4.60;;;5.60;99.90;;;;;;4995513;28;20488;-74
2024/02/27 09:50:56;;;;;;;11.83;6.30;;;5.60;99.90;;;;;;4993580;28;20446;-74
2024/02/27 09:53:23;;;;;;;14.60;7.40;;;5.40;99.90;;;;;;4994394;28;20428;-73
2024/02/27 09:55:52;;;;;;;10.77;5.10;;;5.30;99.90;;;;;;4991862;28;20465;-73
2024/02/27 09:58:19;;;;;;;7.07;5.20;;;5.30;99.90;;;;;;4989084;28;20487;-73
2024/02/27 10:00:46;;;;;;;10.93;5.77;;;5.30;99.90;;;;;;4983962;28;20595;-74
2024/02/27 10:03:17;;;;;;;5.57;5.00;;;5.50;99.90;;;;;;4993181;28;20466;-74
2024/02/27 10:05:44;;;;;;;17.37;7.53;;;5.60;99.90;;;;;;4994658;28;20471;-75
2024/02/27 10:08:22;;;;;;;14.50;5.00;;;5.80;99.90;;;;;;4990979;28;20472;-74
2024/02/27 10:10:49;;;;;;;5.17;3.80;;;5.70;99.90;;;;;;4992751;28;20569;-74
2024/02/27 10:13:18;;;;;;;8.37;6.90;;;5.50;99.90;;;;;;4991829;28;20576;-74
2024/02/27 10:15:45;;;;;;;9.50;5.00;;;5.50;99.90;;;;;;4989770;28;20462;-74
2024/02/27 10:18:11;;;;;;;8.43;4.67;;;5.70;99.90;;;;;;4991038;28;20435;-74
2024/02/27 10:20:42;;;;;;;11.80;6.50;;;5.60;99.90;;;;;;4996266;28;20583;-75
2024/02/27 10:23:09;;;;;;;10.80;4.93;;;5.60;99.90;;;;;;4991753;28;20997;-73
2024/02/27 10:25:36;;;;;;;9.43;6.10;;;5.80;99.90;;;;;;4997811;28;20468;-74
2024/02/27 10:28:02;;;;;;;7.00;5.47;;;5.90;99.90;;;;;;4989035;28;20466;-74
2024/02/27 10:30:29;;;;;;;6.53;3.43;;;6.10;99.90;;;;;;4993006;28;20469;-74
2024/02/27 10:32:56;;;;;;;5.37;2.73;;;6.00;99.90;;;;;;4998492;28;20547;-74
2024/02/27 10:35:24;;;;;;;7.33;5.47;;;6.00;99.90;;;;;;4991641;28;20461;-74
2024/02/27 10:37:52;;;;;;;13.47;5.07;;;6.20;99.90;;;;;;4993869;28;20505;-74
2024/02/27 10:40:20;;;;;;;12.30;6.20;;;6.30;99.90;;;;;;4996892;28;20485;-75
2024/02/27 10:42:47;;;;;;;8.80;6.43;;;6.60;99.90;;;;;;4994641;28;20517;-73
2024/02/27 10:45:16;;;;;;;9.20;4.93;;;6.70;99.90;;;;;;4992734;28;20495;-73
2024/02/27 10:47:43;;;;;;;7.10;5.17;;;6.70;99.90;;;;;;4983569;28;21011;-73
2024/02/27 10:50:11;;;;;;;10.50;4.90;;;6.80;99.90;;;;;;4993056;28;20492;-74
2024/02/27 10:52:38;;;;;;;7.77;5.53;;;6.70;99.90;;;;;;4990856;28;20465;-73
2024/02/27 10:55:09;;;;;;;10.70;5.20;;;6.70;99.90;;;;;;4993282;28;20493;-74
2024/02/27 10:57:37;;;;;;;7.80;4.73;;;6.60;99.90;;;;;;4986458;28;20841;-74
2024/02/27 11:00:04;;;;;;;6.10;5.23;;;6.70;99.90;;;;;;4991563;28;20484;-74
2024/02/27 11:02:35;;;;;;;9.87;5.63;;;6.70;99.90;;;;;;4994099;28;20559;-74
2024/02/27 11:05:04;;;;;;;10.50;8.30;;;6.80;99.90;;;;;;4990425;28;20616;-73
2024/02/27 11:07:32;;;;;;;8.10;5.47;;;7.00;99.90;;;;;;4998227;28;20490;-74
2024/02/27 11:10:00;;;;;;;8.70;4.10;;;6.90;99.90;;;;;;5066245;22;21055;-73
2024/02/27 11:12:31;;;;;;;8.47;5.60;;;6.80;99.90;;;;;;4992210;28;20547;-72
2024/02/27 11:15:03;;;;;;;9.70;4.90;;;6.90;99.90;;;;;;4988086;28;20457;-71
2024/02/27 11:17:34;;;;;;;10.43;5.47;;;6.90;99.90;;;;;;4987742;28;20476;-72
2024/02/27 11:20:02;;;;;;;8.57;5.33;;;7.10;99.90;;;;;;4979293;28;20505;-72
2024/02/27 11:22:30;;;;;;;11.33;4.37;;;7.10;99.90;;;;;;4978804;28;20568;-73
2024/02/27 11:24:57;;;;;;;12.00;5.47;;;7.20;99.90;;;;;;4975119;28;20478;-73
2024/02/27 11:27:26;;;;;;;14.80;7.37;;;7.60;99.90;;;;;;4973069;28;20453;-73
2024/02/27 11:29:57;;;;;;;8.30;4.77;;;7.70;99.90;;;;;;4979471;28;20478;-72
2024/02/27 11:32:24;;;;;;;7.23;4.20;;;7.50;99.90;;;;;;4975730;28;20821;-73
2024/02/27 11:34:51;;;;;;;8.10;4.17;;;7.60;99.90;;;;;;4970751;28;20466;-72
2024/02/27 11:37:20;;;;;;;8.30;4.83;;;7.60;99.90;;;;;;4971952;28;21162;-73
2024/02/27 11:39:47;;;;;;;9.20;6.13;;;7.80;99.90;;;;;;4968497;28;20492;-72
2024/02/27 11:42:28;;;;;;;7.67;5.50;;;8.00;99.90;;;;;;4977702;28;20472;-75
2024/02/27 11:45:07;;;;;;;5.90;4.87;;;8.10;99.90;;;;;;4969792;28;20498;-72
2024/02/27 11:47:36;;;;;;;9.20;5.70;;;8.10;99.90;;;;;;4980322;28;20477;-74
2024/02/27 11:50:03;;;;;;;11.77;5.10;;;8.40;99.90;;;;;;4972223;28;20494;-72
2024/02/27 11:52:33;;;;;;;7.00;3.90;;;8.50;99.90;;;;;;4976756;28;20808;-73
2024/02/27 11:55:06;;;;;;;7.40;4.97;;;8.80;99.90;;;;;;4976697;28;20883;-73
2024/02/27 11:57:35;;;;;;;11.33;5.80;;;8.70;99.90;;;;;;4971345;28;20818;-73
2024/02/27 12:00:12;;;;;;;11.57;6.33;;;8.60;99.90;;;;;;4969030;28;20986;-73
2024/02/27 12:02:39;;;;;;;9.93;6.33;;;8.40;99.90;;;;;;4973779;28;20567;-74
2024/02/27 12:05:07;;;;;;;12.47;5.87;;;8.50;99.90;;;;;;4984007;28;20486;-72
2024/02/27 12:07:36;;;;;;;8.80;6.23;;;8.50;99.90;;;;;;4981599;28;20549;-73
2024/02/27 12:10:08;;;;;;;12.80;6.00;;;8.40;99.90;;;;;;4977694;28;20549;-72
2024/02/27 12:12:36;;;;;;;13.63;5.27;;;8.30;99.90;;;;;;4972264;28;20530;-73
2024/02/27 12:15:04;;;;;;;7.90;4.40;;;8.10;99.90;;;;;;4976228;28;20454;-73
2024/02/27 12:17:32;;;;;;;8.20;4.13;;;8.00;99.90;;;;;;4977590;28;20478;-72
2024/02/27 12:19:59;;;;;;;5.70;3.17;;;8.30;99.90;;;;;;4974930;28;20456;-73
2024/02/27 12:22:27;;;;;;;9.90;5.53;;;8.60;99.90;;;;;;4979323;28;20466;-72
2024/02/27 12:24:56;;;;;;;9.03;4.53;;;8.60;99.90;;;;;;4985455;28;20914;-73
2024/02/27 12:27:23;;;;;;;7.47;4.00;;;8.30;99.90;;;;;;4984729;28;20458;-72
2024/02/27 12:29:50;;;;;;;6.70;5.00;;;8.60;99.90;;;;;;4984274;28;20485;-73
2024/02/27 12:32:17;;;;;;;7.40;4.20;;;8.60;99.90;;;;;;4985442;28;20469;-72
2024/02/27 12:34:47;;;;;;;12.20;6.67;;;8.70;99.90;;;;;;4985628;28;20460;-72
2024/02/27 12:37:18;;;;;;;7.50;4.60;;;8.80;99.90;;;;;;4982611;28;20462;-72
2024/02/27 12:39:46;;;;;;;8.20;3.47;;;9.00;99.90;;;;;;4982139;28;20552;-73
2024/02/27 12:42:13;;;;;;;5.10;2.77;;;8.80;99.90;;;;;;4985417;28;20893;-72
2024/02/27 12:44:47;;;;;;;7.77;5.50;;;8.50;99.90;;;;;;4984001;28;20479;-72
2024/02/27 12:47:14;;;;;;;6.97;4.30;;;8.50;99.90;;;;;;4984009;28;20437;-73
2024/02/27 12:49:40;;;;;;;10.20;5.10;;;9.00;99.90;;;;;;4986905;28;20913;-72
2024/02/27 12:52:15;;;;;;;9.00;4.93;;;9.40;99.90;;;;;;4994567;28;20470;-73